sensor_id;sensor_type;location;lat;lon;timestamp;P1;durP1;ratioP1;P2;durP2;ratioP2
8474;SDS011;4274;52.012;8.448;2024-02-21T00:02:03;72.77;;;15.20;;
8474;SDS011;4274;52.012;8.448;2024-02-21T00:04:29;66.80;;;15.30;;
8474;SDS011;4274;52.012;8.448;2024-02-21T00:06:55;61.60;;;15.00;;
8474;SDS011;4274;52.012;8.448;2024-02-21T00:09:20;63.80;;;14.87;;
8474;SDS011;4274;52.012;8.448;2024-02-21T00:11:46;70.87;;;14.70;;
8474;SDS011;4274;52.012;8.448;2024-02-21T00:14:12;70.87;;;16.13;;
8474;SDS011;4274;52.012;8.448;2024-02-21T00:16:38;71.00;;;15.03;;
8474;SDS011;4274;52.012;8.448;2024-02-21T00:19:03;68.87;;;16.70;;
8474;SDS011;4274;52.012;8.448;2024-02-21T00:21:29;68.77;;;15.93;;
8474;SDS011;4274;52.012;8.448;2024-02-21T00:23:55;61.30;;;15.10;;
8474;SDS011;4274;52.012;8.448;2024-02-21T00:26:20;69.03;;;15.63;;
8474;SDS011;4274;52.012;8.448;2024-02-21T00:28:46;80.63;;;17.13;;
8474;SDS011;4274;52.012;8.448;2024-02-21T00:31:11;65.57;;;15.10;;
8474;SDS011;4274;52.012;8.448;2024-02-21T00:33:37;68.83;;;15.17;;
8474;SDS011;4274;52.012;8.448;2024-02-21T00:36:03;66.30;;;15.10;;
8474;SDS011;4274;52.012;8.448;2024-02-21T00:38:28;69.30;;;15.33;;
8474;SDS011;4274;52.012;8.448;2024-02-21T00:40:54;87.07;;;16.83;;
8474;SDS011;4274;52.012;8.448;2024-02-21T00:43:20;69.80;;;15.27;;
8474;SDS011;4274;52.012;8.448;2024-02-21T00:45:48;67.80;;;14.93;;
8474;SDS011;4274;52.012;8.448;2024-02-21T00:48:14;82.70;;;15.90;;
8474;SDS011;4274;52.012;8.448;2024-02-21T00:50:40;74.57;;;16.13;;
8474;SDS011;4274;52.012;8.448;2024-02-21T00:53:05;61.97;;;14.10;;
8474;SDS011;4274;52.012;8.448;2024-02-21T00:55:31;70.27;;;15.57;;
8474;SDS011;4274;52.012;8.448;2024-02-21T00:57:57;67.47;;;15.53;;
8474;SDS011;4274;52.012;8.448;2024-02-21T01:00:22;72.97;;;14.90;;
8474;SDS011;4274;52.012;8.448;2024-02-21T01:02:48;69.83;;;15.30;;
8474;SDS011;4274;52.012;8.448;2024-02-21T01:05:13;70.97;;;15.00;;
8474;SDS011;4274;52.012;8.448;2024-02-21T01:07:39;71.63;;;15.17;;
8474;SDS011;4274;52.012;8.448;2024-02-21T01:10:05;68.50;;;15.00;;
8474;SDS011;4274;52.012;8.448;2024-02-21T01:12:31;62.83;;;16.10;;
8474;SDS011;4274;52.012;8.448;2024-02-21T01:14:56;80.57;;;15.13;;
8474;SDS011;4274;52.012;8.448;2024-02-21T01:17:22;72.87;;;14.67;;
8474;SDS011;4274;52.012;8.448;2024-02-21T01:19:48;64.53;;;14.60;;
8474;SDS011;4274;52.012;8.448;2024-02-21T01:22:13;76.43;;;15.77;;
8474;SDS011;4274;52.012;8.448;2024-02-21T01:24:40;69.20;;;15.80;;
8474;SDS011;4274;52.012;8.448;2024-02-21T01:27:06;67.43;;;13.80;;
8474;SDS011;4274;52.012;8.448;2024-02-21T01:29:32;69.67;;;15.33;;
8474;SDS011;4274;52.012;8.448;2024-02-21T01:31:57;79.57;;;15.53;;
8474;SDS011;4274;52.012;8.448;2024-02-21T01:34:23;65.47;;;14.33;;
8474;SDS011;4274;52.012;8.448;2024-02-21T01:36:48;60.63;;;13.00;;
8474;SDS011;4274;52.012;8.448;2024-02-21T01:39:14;65.37;;;14.57;;
8474;SDS011;4274;52.012;8.448;2024-02-21T01:41:40;69.37;;;14.20;;
8474;SDS011;4274;52.012;8.448;2024-02-21T01:44:06;61.10;;;14.10;;
8474;SDS011;4274;52.012;8.448;2024-02-21T01:46:32;66.47;;;15.03;;
8474;SDS011;4274;52.012;8.448;2024-02-21T01:48:57;76.53;;;16.93;;
8474;SDS011;4274;52.012;8.448;2024-02-21T01:51:24;69.63;;;16.07;;
8474;SDS011;4274;52.012;8.448;2024-02-21T01:53:50;68.13;;;15.13;;
8474;SDS011;4274;52.012;8.448;2024-02-21T01:56:16;69.13;;;14.83;;
8474;SDS011;4274;52.012;8.448;2024-02-21T01:58:42;73.00;;;14.40;;
8474;SDS011;4274;52.012;8.448;2024-02-21T02:01:09;68.57;;;16.80;;
8474;SDS011;4274;52.012;8.448;2024-02-21T02:03:35;67.83;;;14.27;;
8474;SDS011;4274;52.012;8.448;2024-02-21T02:06:01;72.80;;;15.03;;
8474;SDS011;4274;52.012;8.448;2024-02-21T02:08:27;72.47;;;16.07;;
8474;SDS011;4274;52.012;8.448;2024-02-21T02:10:53;69.93;;;14.03;;
8474;SDS011;4274;52.012;8.448;2024-02-21T02:13:18;69.57;;;16.27;;
8474;SDS011;4274;52.012;8.448;2024-02-21T02:15:45;66.70;;;14.73;;
8474;SDS011;4274;52.012;8.448;2024-02-21T02:18:12;68.87;;;15.47;;
8474;SDS011;4274;52.012;8.448;2024-02-21T02:20:39;72.33;;;15.10;;
8474;SDS011;4274;52.012;8.448;2024-02-21T02:23:07;63.93;;;14.80;;
8474;SDS011;4274;52.012;8.448;2024-02-21T02:25:35;78.30;;;14.67;;
8474;SDS011;4274;52.012;8.448;2024-02-21T02:28:01;75.40;;;15.47;;
8474;SDS011;4274;52.012;8.448;2024-02-21T02:53:45;68.80;;;14.80;;
8474;SDS011;4274;52.012;8.448;2024-02-21T02:56:14;64.50;;;14.93;;
8474;SDS011;4274;52.012;8.448;2024-02-21T02:58:40;71.33;;;15.07;;
8474;SDS011;4274;52.012;8.448;2024-02-21T03:01:07;70.67;;;15.53;;
8474;SDS011;4274;52.012;8.448;2024-02-21T03:03:33;73.50;;;15.30;;
8474;SDS011;4274;52.012;8.448;2024-02-21T03:05:58;64.10;;;14.67;;
8474;SDS011;4274;52.012;8.448;2024-02-21T03:08:24;70.77;;;14.87;;
8474;SDS011;4274;52.012;8.448;2024-02-21T03:10:49;67.00;;;15.57;;
8474;SDS011;4274;52.012;8.448;2024-02-21T03:13:15;63.67;;;14.97;;
8474;SDS011;4274;52.012;8.448;2024-02-21T03:15:40;72.10;;;15.33;;
8474;SDS011;4274;52.012;8.448;2024-02-21T03:18:06;74.07;;;15.70;;
8474;SDS011;4274;52.012;8.448;2024-02-21T03:20:32;62.87;;;14.40;;
8474;SDS011;4274;52.012;8.448;2024-02-21T03:22:57;73.37;;;13.73;;
8474;SDS011;4274;52.012;8.448;2024-02-21T03:25:23;65.47;;;13.60;;
8474;SDS011;4274;52.012;8.448;2024-02-21T03:27:48;68.50;;;14.40;;
8474;SDS011;4274;52.012;8.448;2024-02-21T03:30:14;63.03;;;15.43;;
8474;SDS011;4274;52.012;8.448;2024-02-21T03:32:40;60.17;;;12.97;;
8474;SDS011;4274;52.012;8.448;2024-02-21T03:35:05;66.27;;;14.50;;
8474;SDS011;4274;52.012;8.448;2024-02-21T03:37:31;64.10;;;12.83;;
8474;SDS011;4274;52.012;8.448;2024-02-21T03:39:57;60.20;;;13.50;;
8474;SDS011;4274;52.012;8.448;2024-02-21T03:42:22;66.60;;;13.63;;
8474;SDS011;4274;52.012;8.448;2024-02-21T03:44:48;69.53;;;13.67;;
8474;SDS011;4274;52.012;8.448;2024-02-21T03:47:13;68.83;;;14.27;;
8474;SDS011;4274;52.012;8.448;2024-02-21T03:49:39;59.77;;;12.90;;
8474;SDS011;4274;52.012;8.448;2024-02-21T03:52:04;62.83;;;13.17;;
8474;SDS011;4274;52.012;8.448;2024-02-21T03:54:30;60.87;;;12.70;;
8474;SDS011;4274;52.012;8.448;2024-02-21T03:56:56;60.07;;;13.60;;
8474;SDS011;4274;52.012;8.448;2024-02-21T03:59:22;56.87;;;12.63;;
8474;SDS011;4274;52.012;8.448;2024-02-21T04:01:51;68.90;;;13.33;;
8474;SDS011;4274;52.012;8.448;2024-02-21T04:04:17;63.47;;;13.20;;
8474;SDS011;4274;52.012;8.448;2024-02-21T04:06:47;59.87;;;12.47;;
8474;SDS011;4274;52.012;8.448;2024-02-21T04:09:13;59.90;;;12.00;;
8474;SDS011;4274;52.012;8.448;2024-02-21T04:11:39;63.60;;;13.20;;
8474;SDS011;4274;52.012;8.448;2024-02-21T04:14:04;64.10;;;13.57;;
8474;SDS011;4274;52.012;8.448;2024-02-21T04:16:30;59.60;;;13.30;;
8474;SDS011;4274;52.012;8.448;2024-02-21T04:18:55;62.23;;;12.00;;
8474;SDS011;4274;52.012;8.448;2024-02-21T04:21:21;62.63;;;12.17;;
8474;SDS011;4274;52.012;8.448;2024-02-21T04:23:46;62.07;;;12.17;;
8474;SDS011;4274;52.012;8.448;2024-02-21T04:26:12;62.47;;;12.27;;
8474;SDS011;4274;52.012;8.448;2024-02-21T04:28:37;69.30;;;12.40;;
8474;SDS011;4274;52.012;8.448;2024-02-21T04:31:03;65.40;;;12.97;;
8474;SDS011;4274;52.012;8.448;2024-02-21T04:33:29;63.77;;;12.97;;
8474;SDS011;4274;52.012;8.448;2024-02-21T04:35:54;54.23;;;12.20;;
8474;SDS011;4274;52.012;8.448;2024-02-21T04:38:20;66.50;;;12.20;;
8474;SDS011;4274;52.012;8.448;2024-02-21T04:40:46;62.50;;;12.93;;
8474;SDS011;4274;52.012;8.448;2024-02-21T04:43:11;64.30;;;12.00;;
8474;SDS011;4274;52.012;8.448;2024-02-21T04:45:37;57.40;;;12.17;;
8474;SDS011;4274;52.012;8.448;2024-02-21T04:48:03;65.03;;;12.80;;
8474;SDS011;4274;52.012;8.448;2024-02-21T04:50:28;58.53;;;12.07;;
8474;SDS011;4274;52.012;8.448;2024-02-21T04:52:54;65.77;;;14.10;;
8474;SDS011;4274;52.012;8.448;2024-02-21T04:55:19;63.53;;;12.63;;
8474;SDS011;4274;52.012;8.448;2024-02-21T04:57:45;61.57;;;13.13;;
8474;SDS011;4274;52.012;8.448;2024-02-21T05:00:11;62.93;;;13.37;;
8474;SDS011;4274;52.012;8.448;2024-02-21T05:02:37;58.10;;;12.33;;
8474;SDS011;4274;52.012;8.448;2024-02-21T05:05:02;68.60;;;12.77;;
8474;SDS011;4274;52.012;8.448;2024-02-21T05:07:28;58.00;;;11.87;;
8474;SDS011;4274;52.012;8.448;2024-02-21T05:09:53;61.87;;;12.97;;
8474;SDS011;4274;52.012;8.448;2024-02-21T05:12:19;67.93;;;13.23;;
8474;SDS011;4274;52.012;8.448;2024-02-21T05:14:45;62.03;;;11.80;;
8474;SDS011;4274;52.012;8.448;2024-02-21T05:17:12;70.70;;;12.90;;
8474;SDS011;4274;52.012;8.448;2024-02-21T05:19:37;62.40;;;13.27;;
8474;SDS011;4274;52.012;8.448;2024-02-21T05:22:03;60.47;;;12.70;;
8474;SDS011;4274;52.012;8.448;2024-02-21T05:24:28;67.50;;;14.20;;
8474;SDS011;4274;52.012;8.448;2024-02-21T05:26:54;63.93;;;12.20;;
8474;SDS011;4274;52.012;8.448;2024-02-21T05:29:21;62.10;;;12.50;;
8474;SDS011;4274;52.012;8.448;2024-02-21T05:34:18;71.83;;;13.13;;
8474;SDS011;4274;52.012;8.448;2024-02-21T05:36:44;67.40;;;14.33;;
8474;SDS011;4274;52.012;8.448;2024-02-21T05:39:10;65.53;;;13.70;;
8474;SDS011;4274;52.012;8.448;2024-02-21T05:41:36;65.10;;;14.07;;
8474;SDS011;4274;52.012;8.448;2024-02-21T05:44:02;61.73;;;13.60;;
8474;SDS011;4274;52.012;8.448;2024-02-21T05:46:27;63.13;;;13.40;;
8474;SDS011;4274;52.012;8.448;2024-02-21T05:48:53;71.37;;;15.33;;
8474;SDS011;4274;52.012;8.448;2024-02-21T05:51:19;65.37;;;14.40;;
8474;SDS011;4274;52.012;8.448;2024-02-21T05:53:44;63.53;;;13.43;;
8474;SDS011;4274;52.012;8.448;2024-02-21T05:56:10;65.57;;;13.70;;
8474;SDS011;4274;52.012;8.448;2024-02-21T05:58:36;76.37;;;13.80;;
8474;SDS011;4274;52.012;8.448;2024-02-21T06:01:02;64.53;;;13.23;;
8474;SDS011;4274;52.012;8.448;2024-02-21T06:03:28;62.10;;;13.47;;
8474;SDS011;4274;52.012;8.448;2024-02-21T06:05:54;66.80;;;14.17;;
8474;SDS011;4274;52.012;8.448;2024-02-21T06:08:20;65.03;;;14.60;;
8474;SDS011;4274;52.012;8.448;2024-02-21T06:10:45;59.73;;;12.83;;
8474;SDS011;4274;52.012;8.448;2024-02-21T06:13:12;62.53;;;13.63;;
8474;SDS011;4274;52.012;8.448;2024-02-21T06:15:37;61.20;;;13.00;;
8474;SDS011;4274;52.012;8.448;2024-02-21T06:18:03;62.50;;;13.37;;
8474;SDS011;4274;52.012;8.448;2024-02-21T06:20:29;66.47;;;14.57;;
8474;SDS011;4274;52.012;8.448;2024-02-21T06:22:54;60.33;;;13.73;;
8474;SDS011;4274;52.012;8.448;2024-02-21T06:25:20;63.37;;;13.43;;
8474;SDS011;4274;52.012;8.448;2024-02-21T06:27:45;60.33;;;13.97;;
8474;SDS011;4274;52.012;8.448;2024-02-21T06:30:11;63.50;;;12.70;;
8474;SDS011;4274;52.012;8.448;2024-02-21T06:32:37;63.40;;;12.80;;
8474;SDS011;4274;52.012;8.448;2024-02-21T06:35:03;62.20;;;13.50;;
8474;SDS011;4274;52.012;8.448;2024-02-21T06:37:29;65.83;;;13.27;;
8474;SDS011;4274;52.012;8.448;2024-02-21T06:39:57;58.20;;;12.63;;
8474;SDS011;4274;52.012;8.448;2024-02-21T06:42:24;56.60;;;12.00;;
8474;SDS011;4274;52.012;8.448;2024-02-21T06:44:49;68.67;;;13.43;;
8474;SDS011;4274;52.012;8.448;2024-02-21T06:47:15;60.63;;;12.17;;
8474;SDS011;4274;52.012;8.448;2024-02-21T06:49:41;60.43;;;13.20;;
8474;SDS011;4274;52.012;8.448;2024-02-21T06:52:07;54.23;;;11.73;;
8474;SDS011;4274;52.012;8.448;2024-02-21T06:54:32;54.30;;;10.90;;
8474;SDS011;4274;52.012;8.448;2024-02-21T06:56:58;63.87;;;10.90;;
8474;SDS011;4274;52.012;8.448;2024-02-21T06:59:24;60.60;;;10.20;;
8474;SDS011;4274;52.012;8.448;2024-02-21T07:01:53;62.27;;;10.60;;
8474;SDS011;4274;52.012;8.448;2024-02-21T07:04:20;54.23;;;10.80;;
8474;SDS011;4274;52.012;8.448;2024-02-21T07:06:46;59.73;;;9.70;;
8474;SDS011;4274;52.012;8.448;2024-02-21T07:09:11;58.90;;;9.77;;
8474;SDS011;4274;52.012;8.448;2024-02-21T07:11:37;53.20;;;9.90;;
8474;SDS011;4274;52.012;8.448;2024-02-21T07:14:02;58.20;;;11.03;;
8474;SDS011;4274;52.012;8.448;2024-02-21T07:16:28;56.60;;;9.27;;
8474;SDS011;4274;52.012;8.448;2024-02-21T07:18:54;53.97;;;9.53;;
8474;SDS011;4274;52.012;8.448;2024-02-21T07:21:20;53.63;;;9.30;;
8474;SDS011;4274;52.012;8.448;2024-02-21T07:23:46;56.80;;;9.50;;
8474;SDS011;4274;52.012;8.448;2024-02-21T07:26:11;58.67;;;8.27;;
8474;SDS011;4274;52.012;8.448;2024-02-21T07:28:37;60.00;;;9.17;;
8474;SDS011;4274;52.012;8.448;2024-02-21T07:31:02;53.77;;;9.10;;
8474;SDS011;4274;52.012;8.448;2024-02-21T07:33:28;49.07;;;7.63;;
8474;SDS011;4274;52.012;8.448;2024-02-21T07:35:55;60.60;;;9.87;;
8474;SDS011;4274;52.012;8.448;2024-02-21T07:38:21;56.20;;;9.07;;
8474;SDS011;4274;52.012;8.448;2024-02-21T07:40:47;50.67;;;7.57;;
8474;SDS011;4274;52.012;8.448;2024-02-21T07:43:13;54.97;;;7.13;;
8474;SDS011;4274;52.012;8.448;2024-02-21T07:45:38;55.43;;;8.93;;
8474;SDS011;4274;52.012;8.448;2024-02-21T07:48:05;54.90;;;7.93;;
8474;SDS011;4274;52.012;8.448;2024-02-21T07:50:31;49.67;;;7.00;;
8474;SDS011;4274;52.012;8.448;2024-02-21T07:52:56;51.30;;;7.90;;
8474;SDS011;4274;52.012;8.448;2024-02-21T07:55:22;52.00;;;7.10;;
8474;SDS011;4274;52.012;8.448;2024-02-21T07:57:48;49.97;;;7.17;;
8474;SDS011;4274;52.012;8.448;2024-02-21T08:00:14;48.47;;;6.73;;
8474;SDS011;4274;52.012;8.448;2024-02-21T08:02:44;59.37;;;7.77;;
8474;SDS011;4274;52.012;8.448;2024-02-21T08:05:16;48.60;;;7.83;;
8474;SDS011;4274;52.012;8.448;2024-02-21T08:07:41;49.37;;;7.10;;
8474;SDS011;4274;52.012;8.448;2024-02-21T08:10:07;48.90;;;6.23;;
8474;SDS011;4274;52.012;8.448;2024-02-21T08:12:33;47.73;;;6.93;;
8474;SDS011;4274;52.012;8.448;2024-02-21T08:14:59;51.73;;;6.83;;
8474;SDS011;4274;52.012;8.448;2024-02-21T08:17:25;55.73;;;7.83;;
8474;SDS011;4274;52.012;8.448;2024-02-21T08:19:51;51.80;;;7.70;;
8474;SDS011;4274;52.012;8.448;2024-02-21T08:22:16;50.37;;;7.00;;
8474;SDS011;4274;52.012;8.448;2024-02-21T08:24:42;45.80;;;6.60;;
8474;SDS011;4274;52.012;8.448;2024-02-21T08:27:07;55.23;;;7.23;;
8474;SDS011;4274;52.012;8.448;2024-02-21T08:29:33;50.10;;;7.07;;
8474;SDS011;4274;52.012;8.448;2024-02-21T08:31:59;50.73;;;6.43;;
8474;SDS011;4274;52.012;8.448;2024-02-21T08:34:24;50.13;;;6.63;;
8474;SDS011;4274;52.012;8.448;2024-02-21T08:36:50;48.40;;;6.03;;
8474;SDS011;4274;52.012;8.448;2024-02-21T08:39:16;48.13;;;6.70;;
8474;SDS011;4274;52.012;8.448;2024-02-21T08:41:41;52.50;;;6.47;;
8474;SDS011;4274;52.012;8.448;2024-02-21T08:44:07;51.73;;;6.93;;
8474;SDS011;4274;52.012;8.448;2024-02-21T08:46:33;50.07;;;6.70;;
8474;SDS011;4274;52.012;8.448;2024-02-21T08:48:59;45.97;;;5.50;;
8474;SDS011;4274;52.012;8.448;2024-02-21T08:51:24;49.40;;;6.47;;
8474;SDS011;4274;52.012;8.448;2024-02-21T08:53:50;48.87;;;6.20;;
8474;SDS011;4274;52.012;8.448;2024-02-21T08:56:16;48.27;;;6.57;;
8474;SDS011;4274;52.012;8.448;2024-02-21T08:58:42;50.30;;;6.30;;
8474;SDS011;4274;52.012;8.448;2024-02-21T09:01:09;51.37;;;6.37;;
8474;SDS011;4274;52.012;8.448;2024-02-21T09:03:38;48.47;;;6.03;;
8474;SDS011;4274;52.012;8.448;2024-02-21T09:06:05;49.20;;;6.27;;
8474;SDS011;4274;52.012;8.448;2024-02-21T09:08:32;51.47;;;6.23;;
8474;SDS011;4274;52.012;8.448;2024-02-21T09:10:57;48.00;;;5.20;;
8474;SDS011;4274;52.012;8.448;2024-02-21T09:13:24;49.60;;;6.07;;
8474;SDS011;4274;52.012;8.448;2024-02-21T09:15:50;51.00;;;6.30;;
8474;SDS011;4274;52.012;8.448;2024-02-21T09:18:15;44.03;;;4.90;;
8474;SDS011;4274;52.012;8.448;2024-02-21T09:20:42;48.00;;;5.70;;
8474;SDS011;4274;52.012;8.448;2024-02-21T09:23:07;49.17;;;5.60;;
8474;SDS011;4274;52.012;8.448;2024-02-21T09:25:33;49.17;;;6.30;;
8474;SDS011;4274;52.012;8.448;2024-02-21T09:28:00;46.33;;;5.73;;
8474;SDS011;4274;52.012;8.448;2024-02-21T09:30:27;45.93;;;5.30;;
8474;SDS011;4274;52.012;8.448;2024-02-21T09:32:52;46.00;;;5.17;;
8474;SDS011;4274;52.012;8.448;2024-02-21T09:35:18;45.43;;;4.70;;
8474;SDS011;4274;52.012;8.448;2024-02-21T09:37:44;50.20;;;5.73;;
8474;SDS011;4274;52.012;8.448;2024-02-21T09:40:09;51.80;;;5.70;;
8474;SDS011;4274;52.012;8.448;2024-02-21T09:42:39;45.07;;;5.00;;
8474;SDS011;4274;52.012;8.448;2024-02-21T09:45:15;44.23;;;4.70;;
8474;SDS011;4274;52.012;8.448;2024-02-21T09:50:24;46.53;;;5.30;;
8474;SDS011;4274;52.012;8.448;2024-02-21T09:52:52;46.57;;;6.10;;
8474;SDS011;4274;52.012;8.448;2024-02-21T09:55:19;44.33;;;4.50;;
8474;SDS011;4274;52.012;8.448;2024-02-21T09:57:46;55.13;;;5.27;;
8474;SDS011;4274;52.012;8.448;2024-02-21T10:00:12;47.10;;;5.33;;
8474;SDS011;4274;52.012;8.448;2024-02-21T10:02:46;45.80;;;5.00;;
8474;SDS011;4274;52.012;8.448;2024-02-21T10:05:15;43.13;;;4.73;;
8474;SDS011;4274;52.012;8.448;2024-02-21T10:07:41;46.53;;;4.73;;
8474;SDS011;4274;52.012;8.448;2024-02-21T10:10:07;47.03;;;5.30;;
8474;SDS011;4274;52.012;8.448;2024-02-21T10:12:33;44.90;;;5.30;;
8474;SDS011;4274;52.012;8.448;2024-02-21T10:15:02;48.97;;;5.27;;
8474;SDS011;4274;52.012;8.448;2024-02-21T10:17:28;48.83;;;5.20;;
8474;SDS011;4274;52.012;8.448;2024-02-21T10:19:54;44.60;;;4.47;;
8474;SDS011;4274;52.012;8.448;2024-02-21T10:22:20;47.33;;;5.60;;
8474;SDS011;4274;52.012;8.448;2024-02-21T10:24:50;52.90;;;6.03;;
8474;SDS011;4274;52.012;8.448;2024-02-21T10:27:16;50.53;;;4.83;;
8474;SDS011;4274;52.012;8.448;2024-02-21T10:29:41;47.13;;;5.23;;
8474;SDS011;4274;52.012;8.448;2024-02-21T10:32:07;47.20;;;4.70;;
8474;SDS011;4274;52.012;8.448;2024-02-21T10:34:35;45.87;;;5.60;;
8474;SDS011;4274;52.012;8.448;2024-02-21T10:37:04;57.63;;;5.40;;
8474;SDS011;4274;52.012;8.448;2024-02-21T10:39:32;43.37;;;5.30;;
8474;SDS011;4274;52.012;8.448;2024-02-21T10:41:59;47.00;;;5.30;;
8474;SDS011;4274;52.012;8.448;2024-02-21T10:44:29;47.60;;;5.40;;
8474;SDS011;4274;52.012;8.448;2024-02-21T10:46:56;46.00;;;5.40;;
8474;SDS011;4274;52.012;8.448;2024-02-21T10:49:23;46.67;;;5.00;;
8474;SDS011;4274;52.012;8.448;2024-02-21T10:51:50;54.10;;;6.00;;
8474;SDS011;4274;52.012;8.448;2024-02-21T10:56:56;45.67;;;6.20;;
8474;SDS011;4274;52.012;8.448;2024-02-21T10:59:23;49.20;;;6.80;;
8474;SDS011;4274;52.012;8.448;2024-02-21T11:01:51;49.67;;;6.20;;
8474;SDS011;4274;52.012;8.448;2024-02-21T11:04:17;46.57;;;6.30;;
8474;SDS011;4274;52.012;8.448;2024-02-21T11:06:43;51.90;;;6.90;;
8474;SDS011;4274;52.012;8.448;2024-02-21T11:09:09;54.23;;;7.00;;
8474;SDS011;4274;52.012;8.448;2024-02-21T11:11:39;53.03;;;6.93;;
8474;SDS011;4274;52.012;8.448;2024-02-21T11:16:35;54.30;;;7.80;;
8474;SDS011;4274;52.012;8.448;2024-02-21T11:19:09;51.90;;;7.60;;
8474;SDS011;4274;52.012;8.448;2024-02-21T11:21:44;45.93;;;5.90;;
8474;SDS011;4274;52.012;8.448;2024-02-21T11:24:09;48.27;;;6.10;;
8474;SDS011;4274;52.012;8.448;2024-02-21T11:26:36;50.27;;;7.57;;
8474;SDS011;4274;52.012;8.448;2024-02-21T11:29:02;53.80;;;7.23;;
8474;SDS011;4274;52.012;8.448;2024-02-21T11:31:42;52.30;;;7.10;;
8474;SDS011;4274;52.012;8.448;2024-02-21T11:34:12;49.33;;;6.90;;
8474;SDS011;4274;52.012;8.448;2024-02-21T11:36:47;54.00;;;8.03;;
8474;SDS011;4274;52.012;8.448;2024-02-21T11:39:21;52.10;;;7.70;;
8474;SDS011;4274;52.012;8.448;2024-02-21T11:44:45;48.53;;;7.53;;
8474;SDS011;4274;52.012;8.448;2024-02-21T11:47:10;49.43;;;7.00;;
8474;SDS011;4274;52.012;8.448;2024-02-21T11:49:37;54.20;;;7.80;;
8474;SDS011;4274;52.012;8.448;2024-02-21T11:52:06;50.33;;;6.73;;
8474;SDS011;4274;52.012;8.448;2024-02-21T11:54:33;49.30;;;6.87;;
8474;SDS011;4274;52.012;8.448;2024-02-21T11:56:59;50.87;;;6.57;;
8474;SDS011;4274;52.012;8.448;2024-02-21T11:59:26;45.90;;;5.80;;
8474;SDS011;4274;52.012;8.448;2024-02-21T12:01:52;52.37;;;6.73;;
8474;SDS011;4274;52.012;8.448;2024-02-21T12:04:18;46.77;;;6.30;;
8474;SDS011;4274;52.012;8.448;2024-02-21T12:06:45;51.77;;;7.30;;
8474;SDS011;4274;52.012;8.448;2024-02-21T12:09:14;48.67;;;5.93;;
8474;SDS011;4274;52.012;8.448;2024-02-21T12:11:44;52.77;;;6.60;;
8474;SDS011;4274;52.012;8.448;2024-02-21T12:14:11;45.30;;;6.00;;
8474;SDS011;4274;52.012;8.448;2024-02-21T12:16:41;54.00;;;6.83;;
8474;SDS011;4274;52.012;8.448;2024-02-21T12:19:07;57.67;;;7.70;;
8474;SDS011;4274;52.012;8.448;2024-02-21T12:21:34;49.33;;;6.60;;
8474;SDS011;4274;52.012;8.448;2024-02-21T12:26:40;54.00;;;6.40;;
8474;SDS011;4274;52.012;8.448;2024-02-21T12:29:06;58.90;;;7.17;;
8474;SDS011;4274;52.012;8.448;2024-02-21T12:31:34;50.37;;;6.83;;
8474;SDS011;4274;52.012;8.448;2024-02-21T12:34:01;51.00;;;6.83;;
8474;SDS011;4274;52.012;8.448;2024-02-21T12:36:27;53.20;;;7.00;;
8474;SDS011;4274;52.012;8.448;2024-02-21T12:38:52;53.17;;;8.07;;
8474;SDS011;4274;52.012;8.448;2024-02-21T12:41:18;49.63;;;7.57;;
8474;SDS011;4274;52.012;8.448;2024-02-21T12:43:43;51.20;;;7.93;;
8474;SDS011;4274;52.012;8.448;2024-02-21T12:46:09;56.23;;;7.47;;
8474;SDS011;4274;52.012;8.448;2024-02-21T12:48:35;51.10;;;7.40;;
8474;SDS011;4274;52.012;8.448;2024-02-21T12:51:00;56.70;;;7.63;;
8474;SDS011;4274;52.012;8.448;2024-02-21T12:53:26;51.30;;;7.40;;
8474;SDS011;4274;52.012;8.448;2024-02-21T12:55:51;49.50;;;6.47;;
8474;SDS011;4274;52.012;8.448;2024-02-21T12:58:18;53.10;;;7.80;;
8474;SDS011;4274;52.012;8.448;2024-02-21T13:00:43;52.20;;;6.80;;
8474;SDS011;4274;52.012;8.448;2024-02-21T13:03:09;51.57;;;6.97;;
8474;SDS011;4274;52.012;8.448;2024-02-21T13:05:38;53.10;;;7.90;;
8474;SDS011;4274;52.012;8.448;2024-02-21T13:08:04;49.97;;;7.00;;
8474;SDS011;4274;52.012;8.448;2024-02-21T13:10:31;51.23;;;6.20;;
8474;SDS011;4274;52.012;8.448;2024-02-21T13:12:58;52.03;;;6.80;;
8474;SDS011;4274;52.012;8.448;2024-02-21T13:15:24;50.70;;;7.37;;
8474;SDS011;4274;52.012;8.448;2024-02-21T13:17:49;49.50;;;6.93;;
8474;SDS011;4274;52.012;8.448;2024-02-21T13:20:15;51.73;;;5.97;;
8474;SDS011;4274;52.012;8.448;2024-02-21T13:22:40;54.70;;;6.67;;
8474;SDS011;4274;52.012;8.448;2024-02-21T13:25:06;52.17;;;6.60;;
8474;SDS011;4274;52.012;8.448;2024-02-21T13:27:32;51.57;;;6.77;;
8474;SDS011;4274;52.012;8.448;2024-02-21T13:29:58;53.23;;;7.10;;
8474;SDS011;4274;52.012;8.448;2024-02-21T13:32:25;52.00;;;6.37;;
8474;SDS011;4274;52.012;8.448;2024-02-21T13:34:51;46.83;;;6.17;;
8474;SDS011;4274;52.012;8.448;2024-02-21T13:37:17;50.80;;;5.67;;
8474;SDS011;4274;52.012;8.448;2024-02-21T13:39:43;46.67;;;5.47;;
8474;SDS011;4274;52.012;8.448;2024-02-21T13:42:08;48.17;;;5.67;;
8474;SDS011;4274;52.012;8.448;2024-02-21T13:44:34;44.83;;;5.20;;
8474;SDS011;4274;52.012;8.448;2024-02-21T13:47:00;51.53;;;6.27;;
8474;SDS011;4274;52.012;8.448;2024-02-21T13:49:26;48.17;;;4.77;;
8474;SDS011;4274;52.012;8.448;2024-02-21T13:51:51;49.30;;;5.73;;
8474;SDS011;4274;52.012;8.448;2024-02-21T13:54:17;48.63;;;5.43;;
8474;SDS011;4274;52.012;8.448;2024-02-21T13:56:44;48.70;;;5.30;;
8474;SDS011;4274;52.012;8.448;2024-02-21T13:59:11;49.23;;;5.60;;
8474;SDS011;4274;52.012;8.448;2024-02-21T14:01:38;44.60;;;4.70;;
8474;SDS011;4274;52.012;8.448;2024-02-21T14:04:04;46.60;;;5.13;;
8474;SDS011;4274;52.012;8.448;2024-02-21T14:06:29;47.10;;;4.70;;
8474;SDS011;4274;52.012;8.448;2024-02-21T14:08:55;49.60;;;4.50;;
8474;SDS011;4274;52.012;8.448;2024-02-21T14:11:21;46.10;;;4.20;;
8474;SDS011;4274;52.012;8.448;2024-02-21T14:13:46;45.83;;;4.13;;
8474;SDS011;4274;52.012;8.448;2024-02-21T14:16:12;47.57;;;4.63;;
8474;SDS011;4274;52.012;8.448;2024-02-21T14:18:40;46.80;;;4.20;;
8474;SDS011;4274;52.012;8.448;2024-02-21T14:21:07;45.30;;;4.40;;
8474;SDS011;4274;52.012;8.448;2024-02-21T14:23:35;46.50;;;4.23;;
8474;SDS011;4274;52.012;8.448;2024-02-21T14:26:02;47.83;;;4.63;;
8474;SDS011;4274;52.012;8.448;2024-02-21T14:28:28;50.97;;;5.60;;
8474;SDS011;4274;52.012;8.448;2024-02-21T14:30:54;49.10;;;4.47;;
8474;SDS011;4274;52.012;8.448;2024-02-21T14:33:22;45.70;;;4.10;;
8474;SDS011;4274;52.012;8.448;2024-02-21T14:35:54;44.90;;;3.77;;
8474;SDS011;4274;52.012;8.448;2024-02-21T14:38:20;46.77;;;4.90;;
8474;SDS011;4274;52.012;8.448;2024-02-21T14:40:45;45.33;;;3.97;;
8474;SDS011;4274;52.012;8.448;2024-02-21T14:43:11;46.60;;;4.00;;
8474;SDS011;4274;52.012;8.448;2024-02-21T14:45:37;45.37;;;4.23;;
8474;SDS011;4274;52.012;8.448;2024-02-21T14:48:05;45.67;;;4.97;;
8474;SDS011;4274;52.012;8.448;2024-02-21T14:50:31;43.87;;;4.30;;
8474;SDS011;4274;52.012;8.448;2024-02-21T14:52:57;44.93;;;4.23;;
8474;SDS011;4274;52.012;8.448;2024-02-21T14:55:23;47.97;;;4.07;;
8474;SDS011;4274;52.012;8.448;2024-02-21T14:57:49;44.80;;;3.90;;
8474;SDS011;4274;52.012;8.448;2024-02-21T15:00:15;45.17;;;3.33;;
8474;SDS011;4274;52.012;8.448;2024-02-21T15:02:41;47.37;;;4.00;;
8474;SDS011;4274;52.012;8.448;2024-02-21T15:05:08;52.33;;;4.20;;
8474;SDS011;4274;52.012;8.448;2024-02-21T15:07:34;44.53;;;3.73;;
8474;SDS011;4274;52.012;8.448;2024-02-21T15:09:59;46.20;;;3.70;;
8474;SDS011;4274;52.012;8.448;2024-02-21T15:12:25;47.53;;;4.07;;
8474;SDS011;4274;52.012;8.448;2024-02-21T15:14:51;46.97;;;4.10;;
8474;SDS011;4274;52.012;8.448;2024-02-21T15:17:17;46.30;;;3.97;;
8474;SDS011;4274;52.012;8.448;2024-02-21T15:19:43;49.87;;;4.60;;
8474;SDS011;4274;52.012;8.448;2024-02-21T15:22:12;61.83;;;9.57;;
8474;SDS011;4274;52.012;8.448;2024-02-21T15:24:39;55.87;;;5.87;;
8474;SDS011;4274;52.012;8.448;2024-02-21T15:27:05;49.23;;;4.60;;
8474;SDS011;4274;52.012;8.448;2024-02-21T15:29:31;46.93;;;5.00;;